Flight Track Log - Related Links

Times and Time Zones

All times are in EDT time to prevent confusion due to time zone crossing. See the DAL146 flight status page for this flight to view local times or setup timezone preferences in your user account.

Time Position Orientation Groundspeed Altitude Reporting Facility
EDT Latitude Longitude Course Direction KTS MPH feet Rate Location/Type
Mon 08:12:00 PM -33.2720 -70.8130 349° North  Level FlightAware Approximate
Mon 08:13:00 PM -33.1510 -70.8402 349° North  Level FlightAware Approximate
Mon 08:14:00 PM -33.0300 -70.8673 349° North  Level FlightAware Approximate
Mon 08:15:00 PM -32.9090 -70.8943 349° North  Level FlightAware Approximate
Mon 08:16:00 PM -32.7880 -70.9212 349° North  Level FlightAware Approximate
Mon 08:17:00 PM -32.6670 -70.9481 349° North  Level FlightAware Approximate
Mon 08:18:00 PM -32.5460 -70.9749 349° North  Level FlightAware Approximate
Mon 08:19:00 PM -32.4250 -71.0016 349° North  Level FlightAware Approximate
Mon 08:20:00 PM -32.3040 -71.0282 349° North  Level FlightAware Approximate
Mon 08:21:00 PM -32.1828 -71.0549 349° North  Level FlightAware Approximate
Mon 08:22:00 PM -32.0615 -71.0814 349° North  Level FlightAware Approximate
Mon 08:23:00 PM -31.9403 -71.1079 350° North  Level FlightAware Approximate
Mon 08:24:00 PM -31.8129 -71.1367 349° North  Level FlightAware Approximate
Mon 08:25:00 PM -31.6918 -71.1644 349° North  Level FlightAware Approximate
Mon 08:26:00 PM -31.5708 -71.1921 349° North  Level FlightAware Approximate
Mon 08:27:00 PM -31.4497 -71.2197 349° North  Level FlightAware Approximate
Mon 08:28:00 PM -31.3287 -71.2473 349° North  Level FlightAware Approximate
Mon 08:29:00 PM -31.2076 -71.2747 349° North  Level FlightAware Approximate
Mon 08:30:00 PM -31.0866 -71.3021 349° North  Level FlightAware Approximate
Mon 08:31:00 PM -30.9655 -71.3295 349° North  Level FlightAware Approximate
Mon 08:32:00 PM -30.8444 -71.3567 349° North  Level FlightAware Approximate
Mon 08:33:00 PM -30.7233 -71.3839 349° North  Level FlightAware Approximate
Mon 08:34:00 PM -30.6022 -71.4110 349° North  Level FlightAware Approximate
Mon 08:35:00 PM -30.4811 -71.4381 349° North  Level FlightAware Approximate
Mon 08:36:00 PM -30.3601 -71.4651 349° North  Level FlightAware Approximate
Mon 08:37:00 PM -30.2390 -71.4920 349° North  Level FlightAware Approximate
Mon 08:38:00 PM -30.1178 -71.5188 349° North  Level FlightAware Approximate
Mon 08:39:00 PM -29.9967 -71.5456 349° North  Level FlightAware Approximate
Mon 08:40:00 PM -29.8756 -71.5723 349° North  Level FlightAware Approximate
Mon 08:41:00 PM -29.7545 -71.5990 349° North  Level FlightAware Approximate
Mon 08:42:00 PM -29.6333 -71.6256 349° North  Level FlightAware Approximate
Mon 08:43:00 PM -29.5122 -71.6521 349° North  Level FlightAware Approximate
Mon 08:44:00 PM -29.3911 -71.6786 349° North  Level FlightAware Approximate
Mon 08:45:00 PM -29.2699 -71.7050 349° North  Level FlightAware Approximate
Mon 08:46:00 PM -29.1488 -71.7313 349° North  Level FlightAware Approximate
Mon 08:47:00 PM -29.0276 -71.7576 349° North  Level FlightAware Approximate
Mon 08:48:00 PM -28.9064 -71.7838 349° North  Level FlightAware Approximate
Mon 08:49:00 PM -28.7853 -71.8100 349° North  Level FlightAware Approximate
Mon 08:50:00 PM -28.6641 -71.8361 349° North  Level FlightAware Approximate
Mon 08:51:00 PM -28.5429 -71.8621 349° North  Level FlightAware Approximate
Mon 08:52:00 PM -28.4217 -71.8881 349° North  Level FlightAware Approximate
Mon 08:53:00 PM -28.3006 -71.9140 349° North  Level FlightAware Approximate
Mon 08:54:00 PM -28.1794 -71.9398 349° North  Level FlightAware Approximate
Mon 08:55:00 PM -28.0582 -71.9656 349° North  Level FlightAware Approximate
Mon 08:56:00 PM -27.9370 -71.9914 349° North  Level FlightAware Approximate
Mon 08:57:00 PM -27.8158 -72.0170 349° North  Level FlightAware Approximate
Mon 08:58:00 PM -27.6945 -72.0427 349° North  Level FlightAware Approximate
Mon 08:59:00 PM -27.5733 -72.0682 349° North  Level FlightAware Approximate
Mon 09:00:00 PM -27.4521 -72.0937 349° North  Level FlightAware Approximate
Mon 09:01:00 PM -27.3309 -72.1192 349° North  Level FlightAware Approximate
Mon 09:02:00 PM -27.2096 -72.1446 349° North  Level FlightAware Approximate
Mon 09:03:00 PM -27.0884 -72.1699 349° North  Level FlightAware Approximate
Mon 09:04:00 PM -26.9672 -72.1952 349° North  Level FlightAware Approximate
Mon 09:05:00 PM -26.8459 -72.2205 349° North  Level FlightAware Approximate
Mon 09:06:00 PM -26.7247 -72.2456 349° North  Level FlightAware Approximate
Mon 09:07:00 PM -26.6034 -72.2708 350° North  Level FlightAware Approximate
Mon 09:08:00 PM -26.4822 -72.2958 350° North  Level FlightAware Approximate
Mon 09:09:00 PM -26.3609 -72.3208 350° North  Level FlightAware Approximate
Mon 09:10:00 PM -26.2396 -72.3458 350° North  Level FlightAware Approximate
Mon 09:11:00 PM -26.1184 -72.3707 350° North  Level FlightAware Approximate
Mon 09:12:00 PM -25.9971 -72.3956 350° North  Level FlightAware Approximate
Mon 09:13:00 PM -25.8752 -72.4205 350° North  Level FlightAware Approximate
Mon 09:14:00 PM -25.7532 -72.4454 350° North  Level FlightAware Approximate
Mon 09:15:00 PM -25.6317 -72.4702 350° North  Level FlightAware Approximate
Mon 09:16:00 PM -25.5102 -72.4949 350° North  Level FlightAware Approximate
Mon 09:17:00 PM -25.3887 -72.5195 350° North  Level FlightAware Approximate
Mon 09:18:00 PM -25.2672 -72.5441 350° North  Level FlightAware Approximate
Mon 09:19:00 PM -25.1457 -72.5687 350° North  Level FlightAware Approximate
Mon 09:20:00 PM -25.0242 -72.5932 350° North  Level FlightAware Approximate
Mon 09:21:00 PM -24.9026 -72.6177 350° North  Level FlightAware Approximate
Mon 09:22:00 PM -24.7811 -72.6421 350° North  Level FlightAware Approximate
Mon 09:23:00 PM -24.6596 -72.6664 350° North  Level FlightAware Approximate
Mon 09:24:00 PM -24.5380 -72.6908 350° North  Level FlightAware Approximate
Mon 09:25:00 PM -24.4165 -72.7150 350° North  Level FlightAware Approximate
Mon 09:26:00 PM -24.2949 -72.7392 350° North  Level FlightAware Approximate
Mon 09:27:00 PM -24.1734 -72.7634 350° North  Level FlightAware Approximate
Mon 09:28:00 PM -24.0518 -72.7875 350° North  Level FlightAware Approximate
Mon 09:29:00 PM -23.9303 -72.8116 350° North  Level FlightAware Approximate
Mon 09:30:00 PM -23.8087 -72.8357 350° North  Level FlightAware Approximate
Mon 09:31:00 PM -23.6871 -72.8596 350° North  Level FlightAware Approximate
Mon 09:32:00 PM -23.5656 -72.8836 350° North  Level FlightAware Approximate
Mon 09:33:00 PM -23.4440 -72.9075 350° North  Level FlightAware Approximate
Mon 09:34:00 PM -23.3224 -72.9314 350° North  Level FlightAware Approximate
Mon 09:35:00 PM -23.2008 -72.9552 350° North  Level FlightAware Approximate
Mon 09:36:00 PM -23.0793 -72.9790 350° North  Level FlightAware Approximate
Mon 09:37:00 PM -22.9577 -73.0027 350° North  Level FlightAware Approximate
Mon 09:38:00 PM -22.8361 -73.0264 350° North  Level FlightAware Approximate
Mon 09:39:00 PM -22.7145 -73.0500 350° North  Level FlightAware Approximate
Mon 09:40:00 PM -22.5929 -73.0736 350° North  Level FlightAware Approximate
Mon 09:41:00 PM -22.4713 -73.0972 350° North  Level FlightAware Approximate
Mon 09:42:00 PM -22.3497 -73.1207 350° North  Level FlightAware Approximate
Mon 09:43:00 PM -22.2281 -73.1442 350° North  Level FlightAware Approximate
Mon 09:44:00 PM -22.1065 -73.1676 350° North  Level FlightAware Approximate
Mon 09:45:00 PM -21.9849 -73.1910 350° North  Level FlightAware Approximate
Mon 09:46:00 PM -21.8632 -73.2144 350° North  Level FlightAware Approximate
Mon 09:47:00 PM -21.7416 -73.2377 350° North  Level FlightAware Approximate
Mon 09:48:00 PM -21.6200 -73.2610 350° North  Level FlightAware Approximate
Mon 09:49:00 PM -21.4984 -73.2842 350° North  Level FlightAware Approximate
Mon 09:50:00 PM -21.3767 -73.3074 350° North  Level FlightAware Approximate
Mon 09:51:00 PM -21.2551 -73.3306 350° North  Level FlightAware Approximate
Mon 09:52:00 PM -21.1335 -73.3537 350° North  Level FlightAware Approximate
Mon 09:53:00 PM -21.0118 -73.3768 350° North  Level FlightAware Approximate
Mon 09:54:00 PM -20.8902 -73.3998 350° North  Level FlightAware Approximate
Mon 09:55:00 PM -20.7685 -73.4229 350° North  Level FlightAware Approximate
Mon 09:56:00 PM -20.6469 -73.4458 350° North  Level FlightAware Approximate
Mon 09:57:00 PM -20.5252 -73.4688 350° North  Level FlightAware Approximate
Mon 09:58:00 PM -20.4036 -73.4917 350° North  Level FlightAware Approximate
Mon 09:59:00 PM -20.2819 -73.5145 350° North  Level FlightAware Approximate
Mon 10:00:00 PM -20.1603 -73.5374 350° North  Level FlightAware Approximate
Mon 10:01:00 PM -20.0386 -73.5602 350° North  Level FlightAware Approximate
Mon 10:02:00 PM -19.9169 -73.5829 350° North  Level FlightAware Approximate
Mon 10:03:00 PM -19.7953 -73.6056 350° North  Level FlightAware Approximate
Mon 10:04:00 PM -19.6736 -73.6283 350° North  Level FlightAware Approximate
Mon 10:05:00 PM -19.5519 -73.6510 350° North  Level FlightAware Approximate
Mon 10:06:00 PM -19.4302 -73.6736 350° North  Level FlightAware Approximate
Mon 10:07:00 PM -19.3085 -73.6962 350° North  Level FlightAware Approximate
Mon 10:08:00 PM -19.1869 -73.7187 350° North  Level FlightAware Approximate
Mon 10:09:00 PM -19.0652 -73.7412 350° North  Level FlightAware Approximate
Mon 10:10:00 PM -18.9435 -73.7637 350° North  Level FlightAware Approximate
Mon 10:11:00 PM -18.8218 -73.7862 350° North  Level FlightAware Approximate
Mon 10:12:00 PM -18.7001 -73.8086 350° North  Level FlightAware Approximate
Mon 10:13:00 PM -18.5784 -73.8310 350° North  Level FlightAware Approximate
Mon 10:14:00 PM -18.4567 -73.8534 350° North  Level FlightAware Approximate
Mon 10:15:00 PM -18.3350 -73.8757 350° North  Level FlightAware Approximate
Mon 10:16:00 PM -18.2133 -73.8980 350° North  Level FlightAware Approximate
Mon 10:17:00 PM -18.0916 -73.9202 350° North  Level FlightAware Approximate
Mon 10:18:00 PM -17.9699 -73.9425 350° North  Level FlightAware Approximate
Mon 10:19:00 PM -17.8482 -73.9647 350° North  Level FlightAware Approximate
Mon 10:20:00 PM -17.7264 -73.9868 350° North  Level FlightAware Approximate
Mon 10:21:00 PM -17.6047 -74.0090 350° North  Level FlightAware Approximate
Mon 10:22:00 PM -17.4830 -74.0311 350° North  Level FlightAware Approximate
Mon 10:23:00 PM -17.3613 -74.0532 350° North  Level FlightAware Approximate
Mon 10:24:00 PM -17.2395 -74.0752 350° North  Level FlightAware Approximate
Mon 10:25:00 PM -17.1178 -74.0972 350° North  Level FlightAware Approximate
Mon 10:26:00 PM -16.9961 -74.1192 350° North  Level FlightAware Approximate
Mon 10:27:00 PM -16.8744 -74.1412 350° North  Level FlightAware Approximate
Mon 10:28:00 PM -16.7526 -74.1631 350° North  Level FlightAware Approximate
Mon 10:29:00 PM -16.6309 -74.1851 350° North  Level FlightAware Approximate
Mon 10:30:00 PM -16.5091 -74.2069 350° North  Level FlightAware Approximate
Mon 10:31:00 PM -16.3867 -74.2289 350° North  Level FlightAware Approximate
Mon 10:32:00 PM -16.2643 -74.2508 350° North  Level FlightAware Approximate
Mon 10:33:00 PM -16.1419 -74.2728 350° North  Level FlightAware Approximate
Mon 10:34:00 PM -16.0195 -74.2946 350° North  Level FlightAware Approximate
Mon 10:35:00 PM -15.8971 -74.3165 350° North  Level FlightAware Approximate
Mon 10:36:00 PM -15.7747 -74.3383 350° North  Level FlightAware Approximate
Mon 10:37:00 PM -15.6523 -74.3602 350° North  Level FlightAware Approximate
Mon 10:38:00 PM -15.5299 -74.3819 350° North  Level FlightAware Approximate
Mon 10:39:00 PM -15.4075 -74.4037 350° North  Level FlightAware Approximate
Mon 10:40:00 PM -15.2851 -74.4254 350° North  Level FlightAware Approximate
Mon 10:41:00 PM -15.1627 -74.4471 350° North  Level FlightAware Approximate
Mon 10:42:00 PM -15.0402 -74.4688 350° North  Level FlightAware Approximate
Mon 10:43:00 PM -14.9178 -74.4905 350° North  Level FlightAware Approximate
Mon 10:44:00 PM -14.7954 -74.5121 350° North  Level FlightAware Approximate
Mon 10:45:00 PM -14.6730 -74.5337 350° North  Level FlightAware Approximate
Mon 10:46:00 PM -14.5505 -74.5553 350° North  Level FlightAware Approximate
Mon 10:47:00 PM -14.4281 -74.5769 350° North  Level FlightAware Approximate
Mon 10:48:00 PM -14.3057 -74.5984 350° North  Level FlightAware Approximate
Mon 10:49:00 PM -14.1833 -74.6199 350° North  Level FlightAware Approximate
Mon 10:50:00 PM -14.0608 -74.6414 350° North  Level FlightAware Approximate
Mon 10:51:00 PM -13.9384 -74.6629 350° North  Level FlightAware Approximate
Mon 10:52:00 PM -13.8159 -74.6843 350° North  Level FlightAware Approximate
Mon 10:53:00 PM -13.6935 -74.7057 350° North  Level FlightAware Approximate
Mon 10:54:00 PM -13.5710 -74.7271 350° North  Level FlightAware Approximate
Mon 10:55:00 PM -13.4486 -74.7485 350° North  Level FlightAware Approximate
Mon 10:56:00 PM -13.3262 -74.7699 350° North  Level FlightAware Approximate
Mon 10:57:00 PM -13.2037 -74.7912 350° North  Level FlightAware Approximate
Mon 10:58:00 PM -13.0813 -74.8125 350° North  Level FlightAware Approximate
Mon 10:59:00 PM -12.9588 -74.8338 350° North  Level FlightAware Approximate
Mon 11:00:00 PM -12.8364 -74.8551 350° North  Level FlightAware Approximate
Mon 11:01:00 PM -12.7139 -74.8763 350° North  Level FlightAware Approximate
Mon 11:02:00 PM -12.5914 -74.8975 350° North  Level FlightAware Approximate
Mon 11:03:00 PM -12.4690 -74.9187 350° North  Level FlightAware Approximate
Mon 11:04:00 PM -12.3465 -74.9399 350° North  Level FlightAware Approximate
Mon 11:05:00 PM -12.2241 -74.9611 350° North  Level FlightAware Approximate
Mon 11:06:00 PM -12.1016 -74.9823 350° North  Level FlightAware Approximate
Mon 11:07:00 PM -11.9791 -75.0034 350° North  Level FlightAware Approximate
Mon 11:08:00 PM -11.8567 -75.0245 350° North  Level FlightAware Approximate
Mon 11:09:00 PM -11.7342 -75.0456 350° North  Level FlightAware Approximate
Mon 11:10:00 PM -11.6117 -75.0667 350° North  Level FlightAware Approximate
Mon 11:11:00 PM -11.4893 -75.0877 350° North  Level FlightAware Approximate
Mon 11:12:00 PM -11.3668 -75.1087 350° North  Level FlightAware Approximate
Mon 11:13:00 PM -11.2443 -75.1298 350° North  Level FlightAware Approximate
Mon 11:14:00 PM -11.1218 -75.1508 350° North  Level FlightAware Approximate
Mon 11:15:00 PM -10.9993 -75.1718 350° North  Level FlightAware Approximate
Mon 11:16:00 PM -10.8769 -75.1927 350° North  Level FlightAware Approximate
Mon 11:17:00 PM -10.7544 -75.2137 350° North  Level FlightAware Approximate
Mon 11:18:00 PM -10.6319 -75.2346 350° North  Level FlightAware Approximate
Mon 11:19:00 PM -10.5094 -75.2555 350° North  Level FlightAware Approximate
Mon 11:20:00 PM -10.3869 -75.2764 350° North  Level FlightAware Approximate
Mon 11:21:00 PM -10.2645 -75.2973 350° North  Level FlightAware Approximate
Mon 11:22:00 PM -10.1420 -75.3181 350° North  Level FlightAware Approximate
Mon 11:23:00 PM -10.0195 -75.3390 350° North  Level FlightAware Approximate
Mon 11:24:00 PM -9.8970 -75.3598 350° North  Level FlightAware Approximate
Mon 11:25:00 PM -9.7745 -75.3806 350° North  Level FlightAware Approximate
Mon 11:26:00 PM -9.6520 -75.4014 350° North  Level FlightAware Approximate
Mon 11:27:00 PM -9.5295 -75.4222 350° North  Level FlightAware Approximate
Mon 11:28:00 PM -9.4070 -75.4430 351° North  Level FlightAware Approximate
Mon 11:29:00 PM -9.2845 -75.4638 351° North  Level FlightAware Approximate
Mon 11:30:00 PM -9.1620 -75.4845 351° North  Level FlightAware Approximate
Mon 11:31:00 PM -9.0395 -75.5052 351° North  Level FlightAware Approximate
Mon 11:32:00 PM -8.9170 -75.5259 351° North  Level FlightAware Approximate
Mon 11:33:00 PM -8.7945 -75.5466 351° North  Level FlightAware Approximate
Mon 11:34:00 PM -8.6720 -75.5673 351° North  Level FlightAware Approximate
Mon 11:35:00 PM -8.5495 -75.5880 351° North  Level FlightAware Approximate
Mon 11:36:00 PM -8.4270 -75.6087 351° North  Level FlightAware Approximate
Mon 11:37:00 PM -8.3045 -75.6293 351° North  Level FlightAware Approximate
Mon 11:38:00 PM -8.1820 -75.6499 351° North  Level FlightAware Approximate
Mon 11:39:00 PM -8.0595 -75.6706 351° North  Level FlightAware Approximate
Mon 11:40:00 PM -7.9370 -75.6912 351° North  Level FlightAware Approximate
Mon 11:41:00 PM -7.8143 -75.7118 351° North  Level FlightAware Approximate
Mon 11:42:00 PM -7.6915 -75.7324 351° North  Level FlightAware Approximate
Mon 11:43:00 PM -7.5688 -75.7530 351° North  Level FlightAware Approximate
Mon 11:44:00 PM -7.4461 -75.7736 351° North  Level FlightAware Approximate
Mon 11:45:00 PM -7.3233 -75.7942 351° North  Level FlightAware Approximate
Mon 11:46:00 PM -7.2006 -75.8148 351° North  Level FlightAware Approximate
Mon 11:47:00 PM -7.0779 -75.8354 351° North  Level FlightAware Approximate
Mon 11:48:00 PM -6.9551 -75.8559 351° North  Level FlightAware Approximate
Mon 11:49:00 PM -6.8324 -75.8764 351° North  Level FlightAware Approximate
Mon 11:50:00 PM -6.7097 -75.8970 351° North  Level FlightAware Approximate
Mon 11:51:00 PM -6.5869 -75.9175 351° North  Level FlightAware Approximate
Mon 11:52:00 PM -6.4642 -75.9380 351° North  Level FlightAware Approximate
Mon 11:53:00 PM -6.3414 -75.9585 351° North  Level FlightAware Approximate
Mon 11:54:00 PM -6.2187 -75.9790 351° North  Level FlightAware Approximate
Mon 11:55:00 PM -6.0960 -75.9995 351° North  Level FlightAware Approximate
Mon 11:56:00 PM -5.9732 -76.0199 351° North  Level FlightAware Approximate
Mon 11:57:00 PM -5.8505 -76.0404 351° North  Level FlightAware Approximate
Mon 11:58:00 PM -5.7277 -76.0609 351° North  Level FlightAware Approximate
Mon 11:59:00 PM -5.6050 -76.0813 351° North  Level FlightAware Approximate
Tue 12:00:00 AM -5.4823 -76.1017 351° North  Level FlightAware Approximate
Tue 12:01:00 AM -5.3595 -76.1222 351° North  Level FlightAware Approximate
Tue 12:02:00 AM -5.2368 -76.1426 351° North  Level FlightAware Approximate
Tue 12:03:00 AM -5.1140 -76.1630 351° North  Level FlightAware Approximate
Tue 12:04:00 AM -4.9913 -76.1834 351° North  Level FlightAware Approximate
Tue 12:05:00 AM -4.8685 -76.2038 351° North  Level FlightAware Approximate
Tue 12:06:00 AM -4.7458 -76.2242 351° North  Level FlightAware Approximate
Tue 12:07:00 AM -4.6230 -76.2446 351° North  Level FlightAware Approximate
Tue 12:08:00 AM -4.5003 -76.2650 351° North  Level FlightAware Approximate
Tue 12:09:00 AM -4.3775 -76.2853 351° North  Level FlightAware Approximate
Tue 12:10:00 AM -4.2548 -76.3057 351° North  Level FlightAware Approximate
Tue 12:11:00 AM -4.1320 -76.3260 351° North  Level FlightAware Approximate
Tue 12:12:00 AM -4.0093 -76.3464 351° North  Level FlightAware Approximate
Tue 12:13:00 AM -3.8865 -76.3667 351° North  Level FlightAware Approximate
Tue 12:14:00 AM -3.7638 -76.3871 351° North  Level FlightAware Approximate
Tue 12:15:00 AM -3.6410 -76.4074 351° North  Level FlightAware Approximate
Tue 12:16:00 AM -3.5183 -76.4277 351° North  Level FlightAware Approximate
Tue 12:17:00 AM -3.3955 -76.4480 351° North  Level FlightAware Approximate
Tue 12:18:00 AM -3.2728 -76.4684 351° North  Level FlightAware Approximate
Tue 12:19:00 AM -3.1500 -76.4887 351° North  Level FlightAware Approximate
Tue 12:20:00 AM -3.0272 -76.5090 351° North  Level FlightAware Approximate
Tue 12:21:00 AM -2.9045 -76.5293 351° North  Level FlightAware Approximate
Tue 12:22:00 AM -2.7817 -76.5496 351° North  Level FlightAware Approximate
Tue 12:23:00 AM -2.6590 -76.5699 351° North  Level FlightAware Approximate
Tue 12:24:00 AM -2.5362 -76.5901 351° North  Level FlightAware Approximate
Tue 12:25:00 AM -2.4134 -76.6104 351° North  Level FlightAware Approximate
Tue 12:26:00 AM -2.2907 -76.6307 351° North  Level FlightAware Approximate
Tue 12:27:00 AM -2.1679 -76.6510 351° North  Level FlightAware Approximate
Tue 12:28:00 AM -2.0452 -76.6713 351° North  Level FlightAware Approximate
Tue 12:29:00 AM -1.9224 -76.6915 351° North  Level FlightAware Approximate
Tue 12:30:00 AM -1.7996 -76.7118 351° North  Level FlightAware Approximate
Tue 12:31:00 AM -1.6769 -76.7321 351° North  Level FlightAware Approximate
Tue 12:32:00 AM -1.5541 -76.7523 351° North  Level FlightAware Approximate
Tue 12:33:00 AM -1.4314 -76.7726 351° North  Level FlightAware Approximate
Tue 12:34:00 AM -1.3086 -76.7928 351° North  Level FlightAware Approximate
Tue 12:35:00 AM -1.1858 -76.8131 351° North  Level FlightAware Approximate
Tue 12:36:00 AM -1.0631 -76.8334 351° North  Level FlightAware Approximate
Tue 12:37:00 AM -0.9403 -76.8536 351° North  Level FlightAware Approximate
Tue 12:38:00 AM -0.8176 -76.8738 351° North  Level FlightAware Approximate
Tue 12:39:00 AM -0.6948 -76.8941 351° North  Level FlightAware Approximate
Tue 12:40:00 AM -0.5720 -76.9144 351° North  Level FlightAware Approximate
Tue 12:41:00 AM -0.4493 -76.9346 351° North  Level FlightAware Approximate
Tue 12:42:00 AM -0.3265 -76.9548 351° North  Level FlightAware Approximate
Tue 12:43:00 AM -0.2038 -76.9751 351° North  Level FlightAware Approximate
Tue 12:44:00 AM -0.0810 -76.9954 351° North  Level FlightAware Approximate
Tue 12:45:00 AM 0.0418 -77.0156 351° North  Level FlightAware Approximate
Tue 12:46:00 AM 0.1645 -77.0359 351° North  Level FlightAware Approximate
Tue 12:47:00 AM 0.2873 -77.0561 351° North  Level FlightAware Approximate
Tue 12:48:00 AM 0.4100 -77.0763 351° North  Level FlightAware Approximate
Tue 12:49:00 AM 0.5328 -77.0966 351° North  Level FlightAware Approximate
Tue 12:50:00 AM 0.6556 -77.1169 351° North  Level FlightAware Approximate
Tue 12:51:00 AM 0.7783 -77.1371 351° North  Level FlightAware Approximate
Tue 12:52:00 AM 0.9011 -77.1573 351° North  Level FlightAware Approximate
Tue 12:53:00 AM 1.0238 -77.1776 351° North  Level FlightAware Approximate
Tue 12:54:00 AM 1.1466 -77.1979 351° North  Level FlightAware Approximate
Tue 12:55:00 AM 1.2694 -77.2181 351° North  Level FlightAware Approximate
Tue 12:56:00 AM 1.3921 -77.2383 351° North  Level FlightAware Approximate
Tue 12:57:00 AM 1.5149 -77.2586 351° North  Level FlightAware Approximate
Tue 12:58:00 AM 1.6376 -77.2789 351° North  Level FlightAware Approximate
Tue 12:59:00 AM 1.7604 -77.2991 351° North  Level FlightAware Approximate
Tue 01:00:00 AM 1.8831 -77.3194 351° North  Level FlightAware Approximate
Tue 01:01:00 AM 2.0059 -77.3395 351° North  Level FlightAware Approximate
Tue 01:02:00 AM 2.1287 -77.3596 351° North  Level FlightAware Approximate
Tue 01:03:00 AM 2.2515 -77.3797 351° North  Level FlightAware Approximate
Tue 01:04:00 AM 2.3743 -77.3999 351° North  Level FlightAware Approximate
Tue 01:05:00 AM 2.4970 -77.4200 351° North  Level FlightAware Approximate
Tue 01:06:00 AM 2.6198 -77.4401 351° North  Level FlightAware Approximate
Tue 01:07:00 AM 2.7426 -77.4603 351° North  Level FlightAware Approximate
Tue 01:08:00 AM 2.8654 -77.4804 351° North  Level FlightAware Approximate
Tue 01:09:00 AM 2.9882 -77.5006 351° North  Level FlightAware Approximate
Tue 01:10:00 AM 3.1109 -77.5207 351° North  Level FlightAware Approximate
Tue 01:11:00 AM 3.2337 -77.5409 351° North  Level FlightAware Approximate
Tue 01:12:00 AM 3.3565 -77.5610 351° North  Level FlightAware Approximate
Tue 01:13:00 AM 3.4793 -77.5812 351° North  Level FlightAware Approximate
Tue 01:14:00 AM 3.6021 -77.6014 351° North  Level FlightAware Approximate
Tue 01:15:00 AM 3.7248 -77.6216 351° North  Level FlightAware Approximate
Tue 01:16:00 AM 3.8476 -77.6417 351° North  Level FlightAware Approximate
Tue 01:17:00 AM 3.9704 -77.6619 351° North  Level FlightAware Approximate
Tue 01:18:00 AM 4.0932 -77.6821 351° North  Level FlightAware Approximate
Tue 01:19:00 AM 4.2160 -77.7023 351° North  Level FlightAware Approximate
Tue 01:20:00 AM 4.3387 -77.7225 351° North  Level FlightAware Approximate
Tue 01:21:00 AM 4.4615 -77.7428 351° North  Level FlightAware Approximate
Tue 01:22:00 AM 4.5843 -77.7630 351° North  Level FlightAware Approximate
Tue 01:23:00 AM 4.7071 -77.7832 351° North  Level FlightAware Approximate
Tue 01:24:00 AM 4.8298 -77.8035 351° North  Level FlightAware Approximate
Tue 01:25:00 AM 4.9526 -77.8237 351° North  Level FlightAware Approximate
Tue 01:26:00 AM 5.0754 -77.8439 351° North  Level FlightAware Approximate
Tue 01:27:00 AM 5.1981 -77.8642 351° North  Level FlightAware Approximate
Tue 01:28:00 AM 5.3209 -77.8845 351° North  Level FlightAware Approximate
Tue 01:29:00 AM 5.4437 -77.9047 351° North  Level FlightAware Approximate
Tue 01:30:00 AM 5.5665 -77.9250 351° North  Level FlightAware Approximate
Tue 01:31:00 AM 5.6892 -77.9453 351° North  Level FlightAware Approximate
Tue 01:32:00 AM 5.8120 -77.9655 351° North  Level FlightAware Approximate
Tue 01:33:00 AM 5.9348 -77.9858 351° North  Level FlightAware Approximate
Tue 01:34:00 AM 6.0576 -78.0060 351° North  Level FlightAware Approximate
Tue 01:35:00 AM 6.1804 -78.0263 351° North  Level FlightAware Approximate
Tue 01:36:00 AM 6.3032 -78.0465 351° North  Level FlightAware Approximate
Tue 01:37:00 AM 6.4259 -78.0668 351° North  Level FlightAware Approximate
Tue 01:38:00 AM 6.5487 -78.0871 351° North  Level FlightAware Approximate
Tue 01:39:00 AM 6.6715 -78.1074 351° North  Level FlightAware Approximate
Tue 01:40:00 AM 6.7942 -78.1277 351° North  Level FlightAware Approximate
Tue 01:41:00 AM 6.9170 -78.1480 351° North  Level FlightAware Approximate
Tue 01:42:00 AM 7.0398 -78.1684 351° North  Level FlightAware Approximate
Tue 01:43:00 AM 7.1625 -78.1887 351° North  Level FlightAware Approximate
Tue 01:44:00 AM 7.2853 -78.2091 351° North  Level FlightAware Approximate
Tue 01:45:00 AM 7.4081 -78.2294 351° North  Level FlightAware Approximate
Tue 01:46:00 AM 7.5309 -78.2498 351° North  Level FlightAware Approximate
Tue 01:47:00 AM 7.6536 -78.2702 351° North  Level FlightAware Approximate
Tue 01:48:00 AM 7.7764 -78.2906 351° North  Level FlightAware Approximate
Tue 01:49:00 AM 7.8992 -78.3110 351° North  Level FlightAware Approximate
Tue 01:50:00 AM 8.0219 -78.3315 351° North  Level FlightAware Approximate
Tue 01:51:00 AM 8.1447 -78.3519 351° North  Level FlightAware Approximate
Tue 01:52:00 AM 8.2674 -78.3724 351° North  Level FlightAware Approximate
Tue 01:53:00 AM 8.3902 -78.3928 351° North  Level FlightAware Approximate
Tue 01:54:00 AM 8.5129 -78.4136 350° North  Level FlightAware Approximate
Tue 01:55:00 AM 8.6356 -78.4347 350° North  Level FlightAware Approximate
Tue 01:56:00 AM 8.7582 -78.4557 350° North  Level FlightAware Approximate
Tue 01:57:00 AM 8.8809 -78.4768 350° North  Level FlightAware Approximate
Tue 01:58:00 AM 9.0036 -78.4979 350° North  Level FlightAware Approximate
Tue 01:59:00 AM 9.1262 -78.5190 350° North  Level FlightAware Approximate
Tue 02:00:00 AM 9.2489 -78.5401 350° North  Level FlightAware Approximate
Tue 02:01:00 AM 9.3715 -78.5612 350° North  Level FlightAware Approximate
Tue 02:02:00 AM 9.4942 -78.5823 350° North  Level FlightAware Approximate
Tue 02:03:00 AM 9.6169 -78.6035 350° North  Level FlightAware Approximate
Tue 02:04:00 AM 9.7395 -78.6247 350° North  Level FlightAware Approximate
Tue 02:05:00 AM 9.8622 -78.6458 350° North  Level FlightAware Approximate
Tue 02:06:00 AM 9.9848 -78.6670 350° North  Level FlightAware Approximate
Tue 02:07:00 AM 10.1075 -78.6883 350° North  Level FlightAware Approximate
Tue 02:08:00 AM 10.2301 -78.7095 350° North  Level FlightAware Approximate
Tue 02:09:00 AM 10.3528 -78.7307 350° North  Level FlightAware Approximate
Tue 02:10:00 AM 10.4754 -78.7520 350° North  Level FlightAware Approximate
Tue 02:11:00 AM 10.5981 -78.7733 350° North  Level FlightAware Approximate
Tue 02:12:00 AM 10.7207 -78.7946 350° North  Level FlightAware Approximate
Tue 02:13:00 AM 10.8434 -78.8159 350° North  Level FlightAware Approximate
Tue 02:14:00 AM 10.9654 -78.8371 350° North  Level FlightAware Approximate
Tue 02:15:00 AM 11.0874 -78.8584 350° North  Level FlightAware Approximate
Tue 02:16:00 AM 11.2093 -78.8796 350° North  Level FlightAware Approximate
Tue 02:17:00 AM 11.3313 -78.9009 350° North  Level FlightAware Approximate
Tue 02:18:00 AM 11.4533 -78.9222 350° North  Level FlightAware Approximate
Tue 02:19:00 AM 11.5753 -78.9435 350° North  Level FlightAware Approximate
Tue 02:20:00 AM 11.6973 -78.9648 350° North  Level FlightAware Approximate
Tue 02:21:00 AM 11.8192 -78.9862 350° North  Level FlightAware Approximate
Tue 02:22:00 AM 11.9412 -79.0075 350° North  Level FlightAware Approximate
Tue 02:23:00 AM 12.0632 -79.0289 350° North  Level FlightAware Approximate
Tue 02:24:00 AM 12.1851 -79.0503 351° North  Level FlightAware Approximate
Tue 02:25:00 AM 12.3072 -79.0710 351° North  Level FlightAware Approximate
Tue 02:26:00 AM 12.4293 -79.0918 351° North  Level FlightAware Approximate
Tue 02:27:00 AM 12.5514 -79.1125 351° North  Level FlightAware Approximate
Tue 02:28:00 AM 12.6735 -79.1333 351° North  Level FlightAware Approximate
Tue 02:29:00 AM 12.7956 -79.1541 351° North  Level FlightAware Approximate
Tue 02:30:00 AM 12.9176 -79.1749 351° North  Level FlightAware Approximate
Tue 02:31:00 AM 13.0397 -79.1957 351° North  Level FlightAware Approximate
Tue 02:32:00 AM 13.1618 -79.2166 351° North  Level FlightAware Approximate
Tue 02:33:00 AM 13.2839 -79.2375 351° North  Level FlightAware Approximate
Tue 02:34:00 AM 13.4059 -79.2584 351° North  Level FlightAware Approximate
Tue 02:35:00 AM 13.5280 -79.2793 351° North  Level FlightAware Approximate
Tue 02:36:00 AM 13.6501 -79.3002 351° North  Level FlightAware Approximate
Tue 02:37:00 AM 13.7721 -79.3212 351° North  Level FlightAware Approximate
Tue 02:38:00 AM 13.8942 -79.3422 351° North  Level FlightAware Approximate
Tue 02:39:00 AM 14.0163 -79.3632 351° North  Level FlightAware Approximate
Tue 02:40:00 AM 14.1383 -79.3842 351° North  Level FlightAware Approximate
Tue 02:41:00 AM 14.2604 -79.4053 351° North  Level FlightAware Approximate
Tue 02:42:00 AM 14.3824 -79.4264 351° North  Level FlightAware Approximate
Tue 02:43:00 AM 14.5045 -79.4474 351° North  Level FlightAware Approximate
Tue 02:44:00 AM 14.6265 -79.4686 350° North  Level FlightAware Approximate
Tue 02:45:00 AM 14.7486 -79.4897 350° North  Level FlightAware Approximate
Tue 02:46:00 AM 14.8707 -79.5109 350° North  Level FlightAware Approximate
Tue 02:47:00 AM 14.9927 -79.5321 350° North  Level FlightAware Approximate
Tue 02:48:00 AM 15.1147 -79.5532 351° North  Level FlightAware Approximate
Tue 02:49:00 AM 15.2368 -79.5744 350° North  Level FlightAware Approximate
Tue 02:50:00 AM 15.3588 -79.5956 350° North  Level FlightAware Approximate
Tue 02:51:00 AM 15.4809 -79.6168 350° North  Level FlightAware Approximate
Tue 02:52:00 AM 15.6030 -79.6381 350° North  Level FlightAware Approximate
Tue 02:53:00 AM 15.7250 -79.6593 350° North  Level FlightAware Approximate
Tue 02:54:00 AM 15.8470 -79.6806 350° North  Level FlightAware Approximate
Tue 02:55:00 AM 15.9691 -79.7020 350° North  Level FlightAware Approximate
Tue 02:56:00 AM 16.0911 -79.7233 350° North  Level FlightAware Approximate
Tue 02:57:00 AM 16.2132 -79.7447 350° North  Level FlightAware Approximate
Tue 02:58:00 AM 16.3352 -79.7661 350° North  Level FlightAware Approximate
Tue 02:59:00 AM 16.4572 -79.7878 350° North  Level FlightAware Approximate
Tue 03:00:00 AM 16.5790 -79.8106 350° North  Level FlightAware Approximate
Tue 03:01:00 AM 16.7008 -79.8334 350° North  Level FlightAware Approximate
Tue 03:02:00 AM 16.8226 -79.8562 350° North  Level FlightAware Approximate
Tue 03:03:00 AM 16.9444 -79.8791 350° North  Level FlightAware Approximate
Tue 03:04:00 AM 17.0662 -79.9019 350° North  Level FlightAware Approximate
Tue 03:05:00 AM 17.1880 -79.9249 350° North  Level FlightAware Approximate
Tue 03:06:00 AM 17.3098 -79.9478 350° North  Level FlightAware Approximate
Tue 03:07:00 AM 17.4316 -79.9708 350° North  Level FlightAware Approximate
Tue 03:08:00 AM 17.5534 -79.9938 350° North  Level FlightAware Approximate
Tue 03:09:00 AM 17.6752 -80.0169 350° North  Level FlightAware Approximate
Tue 03:10:00 AM 17.7970 -80.0399 350° North  Level FlightAware Approximate
Tue 03:11:00 AM 17.9188 -80.0627 350° North  Level FlightAware Approximate
Tue 03:12:00 AM 18.0407 -80.0851 350° North  Level FlightAware Approximate
Tue 03:13:00 AM 18.1626 -80.1075 350° North  Level FlightAware Approximate
Tue 03:14:00 AM 18.2845 -80.1300 350° North  Level FlightAware Approximate
Tue 03:15:00 AM 18.4064 -80.1525 350° North  Level FlightAware Approximate
Tue 03:16:00 AM 18.5283 -80.1751 350° North  Level FlightAware Approximate
Tue 03:17:00 AM 18.6502 -80.1977 350° North  Level FlightAware Approximate
Tue 03:18:00 AM 18.7721 -80.2203 350° North  Level FlightAware Approximate
Tue 03:19:00 AM 18.8940 -80.2429 350° North  Level FlightAware Approximate
Tue 03:20:00 AM 19.0159 -80.2656 350° North  Level FlightAware Approximate
Tue 03:21:00 AM 19.1377 -80.2883 350° North  Level FlightAware Approximate
Tue 03:22:00 AM 19.2596 -80.3111 350° North  Level FlightAware Approximate
Tue 03:23:00 AM 19.3815 -80.3338 350° North  Level FlightAware Approximate
Tue 03:24:00 AM 19.5033 -80.3567 350° North  Level FlightAware Approximate
Tue 03:25:00 AM 19.6252 -80.3795 350° North  Level FlightAware Approximate
Tue 03:26:00 AM 19.7471 -80.4024 350° North  Level FlightAware Approximate
Tue 03:27:00 AM 19.8689 -80.4253 350° North  Level FlightAware Approximate
Tue 03:28:00 AM 19.9908 -80.4483 350° North  Level FlightAware Approximate
Tue 03:29:00 AM 20.1128 -80.4704 350° North  Level FlightAware Approximate
Tue 03:30:00 AM 20.2348 -80.4925 350° North  Level FlightAware Approximate
Tue 03:31:00 AM 20.3568 -80.5147 350° North  Level FlightAware Approximate
Tue 03:32:00 AM 20.4788 -80.5369 350° North  Level FlightAware Approximate
Tue 03:33:00 AM 20.6008 -80.5591 350° North  Level FlightAware Approximate
Tue 03:34:00 AM 20.7228 -80.5814 350° North  Level FlightAware Approximate
Tue 03:35:00 AM 20.8448 -80.6037 350° North  Level FlightAware Approximate
Tue 03:36:00 AM 20.9667 -80.6260 350° North  Level FlightAware Approximate
Tue 03:37:00 AM 21.0887 -80.6484 350° North  Level FlightAware Approximate
Tue 03:38:00 AM 21.2107 -80.6708 350° North  Level FlightAware Approximate
Tue 03:39:00 AM 21.3327 -80.6932 350° North  Level FlightAware Approximate
Tue 03:40:00 AM 21.4546 -80.7157 350° North  Level FlightAware Approximate
Tue 03:41:00 AM 21.5766 -80.7382 350° North  Level FlightAware Approximate
Tue 03:42:00 AM 21.6986 -80.7608 350° North  Level FlightAware Approximate
Tue 03:43:00 AM 21.8205 -80.7833 350° North  Level FlightAware Approximate
Tue 03:44:00 AM 21.9425 -80.8060 350° North  Level FlightAware Approximate
Tue 03:45:00 AM 22.0643 -80.8294 350° North  Level FlightAware Approximate
Tue 03:46:00 AM 22.1860 -80.8536 350° North  Level FlightAware Approximate
Tue 03:47:00 AM 22.3077 -80.8777 350° North  Level FlightAware Approximate
Tue 03:48:00 AM 22.4294 -80.9020 350° North  Level FlightAware Approximate
Tue 03:49:00 AM 22.5511 -80.9263 350° North  Level FlightAware Approximate
Tue 03:50:00 AM 22.6728 -80.9506 350° North  Level FlightAware Approximate
Tue 03:51:00 AM 22.7945 -80.9749 350° North  Level FlightAware Approximate
Tue 03:52:00 AM 22.9162 -80.9994 350° North  Level FlightAware Approximate
Tue 03:53:00 AM 23.0379 -81.0238 350° North  Level FlightAware Approximate
Tue 03:54:00 AM 23.1596 -81.0483 350° North  Level FlightAware Approximate
Tue 03:55:00 AM 23.2813 -81.0728 350° North  Level FlightAware Approximate
Tue 03:56:00 AM 23.4030 -81.0972 350° North  Level FlightAware Approximate
Tue 03:57:00 AM 23.5247 -81.1215 350° North  Level FlightAware Approximate
Tue 03:58:00 AM 23.6465 -81.1458 350° North  Level FlightAware Approximate
Tue 03:59:00 AM 23.7682 -81.1702 350° North  Level FlightAware Approximate
Tue 04:00:00 AM 23.8899 -81.1946 350° North  Level FlightAware Approximate
Tue 04:00:29 AM 23.5125 -81.2517 349° North 462 532 36,000  Level Miami Center
Tue 04:01:00 AM 24.0118 -81.2167 North  Level FlightAware Approximate
Tue 04:01:29 AM 23.6311 -81.2625 355° North 436 502 36,000  Level Miami Center
Tue 04:02:00 AM 24.1334 -81.2397 348° North  Level FlightAware Approximate
Tue 04:02:29 AM 23.7425 -81.3117 338° Northwest 424 488 36,000  Level Miami Center
Tue 04:03:00 AM 24.2545 -81.2676 349° North  Level FlightAware Approximate
Tue 04:03:29 AM 23.8539 -81.3589 339° North 424 488 36,000  Level Miami Center
Tue 04:04:00 AM 24.3760 -81.2937 349° North  Level FlightAware Approximate
Tue 04:04:29 AM 23.9672 -81.4106 337° Northwest 433 498 36,000  Level Miami Center
Tue 04:05:00 AM 24.4993 -81.3203 349° North  Level FlightAware Approximate
Tue 04:05:29 AM 24.0808 -81.4511 342° North 433 498 36,000  Level Miami Center
Tue 04:06:29 AM 24.1964 -81.4961 340° North 433 498 36,000  Level Miami Center
Tue 04:07:29 AM 24.3078 -81.5392 341° North 428 493 36,000  Level Miami Center
Tue 04:08:29 AM 24.4150 -81.5797 341° North 417 480 36,000  Level Miami Center
Tue 04:09:29 AM 24.5325 -81.6275 340° North 418 481 36,000  Level Miami Center
Tue 04:10:29 AM 24.6439 -81.6706 341° North 426 490 36,000  Level Miami Center
Tue 04:11:29 AM 24.7533 -81.7092 342° North 438 504 36,000  Level Miami Center
Tue 04:12:29 AM 24.8606 -81.7522 340° North 439 505 36,000  Level Miami Center
Tue 04:13:29 AM 24.9781 -81.7981 341° North 424 488 36,000  Level Miami Center
Tue 04:14:29 AM 25.0892 -81.8417 340° North 419 482 36,000  Level Miami Center
Tue 04:15:29 AM 25.1983 -81.8872 339° North 424 488 36,000  Level Miami Center
Tue 04:16:29 AM 25.3078 -81.9286 341° North 424 488 36,000  Level Miami Center
Tue 04:17:29 AM 25.4106 -81.9697 340° North 424 488 36,000  Level Miami Center
Tue 04:18:29 AM 25.5219 -82.0111 341° North 424 488 36,000  Level Miami Center
Tue 04:19:29 AM 25.6331 -82.0550 340° North 424 488 36,000  Level Miami Center
Tue 04:20:29 AM 25.7464 -82.0992 341° North 424 488 36,000  Level Miami Center
Tue 04:21:29 AM 25.8556 -82.1431 340° North 424 488 36,000  Level Miami Center
Tue 04:22:29 AM 25.9811 -82.1925 341° North 424 488 36,000  Level Miami Center
Tue 04:23:29 AM 26.0756 -82.2314 340° North 418 481 36,000  Level Miami Center
Tue 04:24:29 AM 26.1869 -82.2736 341° North 418 481 36,000  Level Miami Center
Tue 04:25:29 AM 26.2936 -82.3200 339° North 418 481 36,000  Level Miami Center
Tue 04:26:29 AM 26.4047 -82.3622 341° North 418 481 36,000  Level Miami Center
Tue 04:28:25 AM 26.6286 -82.4542 340° North 428 493 36,000  Level Jacksonville Center
Tue 04:29:25 AM 26.7372 -82.5003 339° North 423 487 36,000  Level Jacksonville Center
Tue 04:30:25 AM 26.8500 -82.5417 342° North 423 487 36,000  Level Jacksonville Center
Tue 04:31:25 AM 26.9606 -82.5878 340° North 423 487 36,000  Level Jacksonville Center
Tue 04:32:25 AM 27.0733 -82.6317 341° North 423 487 36,000  Level Jacksonville Center
Tue 04:33:25 AM 27.1839 -82.6781 340° North 423 487 36,000  Level Jacksonville Center
Tue 04:34:25 AM 27.2944 -82.7222 340° North 423 487 36,000  Level Jacksonville Center
Tue 04:35:25 AM 27.4072 -82.7686 340° North 428 493 36,000  Level Jacksonville Center
Tue 04:36:25 AM 27.5197 -82.8131 341° North 428 493 36,000  Level Jacksonville Center
Tue 04:37:25 AM 27.6219 -82.8433 345° North 423 487 36,000  Level Jacksonville Center
Tue 04:38:25 AM 27.7389 -82.8714 348° North 423 487 36,000  Level Jacksonville Center
Tue 04:39:25 AM 27.8558 -82.8997 348° North 423 487 36,000  Level Jacksonville Center
Tue 04:40:25 AM 27.9725 -82.9278 348° North 423 487 36,000  Level Jacksonville Center
Tue 04:41:25 AM 28.0872 -82.9583 347° North 423 487 36,000  Level Jacksonville Center
Tue 04:42:25 AM 28.2019 -82.9867 348° North 423 487 36,000  Level Jacksonville Center
Tue 04:43:25 AM 28.3189 -83.0175 347° North 423 487 36,000  Level Jacksonville Center
Tue 04:44:25 AM 28.4317 -83.0436 348° North 423 487 36,000  Level Jacksonville Center
Tue 04:45:25 AM 28.5483 -83.0722 348° North 423 487 36,000  Level Jacksonville Center
Tue 04:46:25 AM 28.6631 -83.1008 348° North 418 481 36,000  Level Jacksonville Center
Tue 04:47:25 AM 28.7778 -83.1319 347° North 418 481 36,000  Level Jacksonville Center
Tue 04:48:25 AM 28.8947 -83.1606 348° North 418 481 36,000  Level Jacksonville Center
Tue 04:49:25 AM 29.0094 -83.1894 348° North 418 481 36,000  Level Jacksonville Center
Tue 04:50:25 AM 29.1242 -83.2206 347° North 418 481 36,000  Level Jacksonville Center
Tue 04:51:25 AM 29.2408 -83.2494 348° North 418 481 36,000  Level Jacksonville Center
Tue 04:52:25 AM 29.3536 -83.2808 346° North 413 475 36,000  Level Jacksonville Center
Tue 04:53:25 AM 29.4683 -83.3100 348° North 413 475 36,000  Level Jacksonville Center
Tue 04:54:25 AM 29.5850 -83.3417 347° North 413 475 36,000  Level Jacksonville Center
Tue 04:55:25 AM 29.7019 -83.3731 347° North 413 475 36,000  Level Jacksonville Center
Tue 04:56:25 AM 29.8167 -83.4000 348° North 419 482 36,000  Level Jacksonville Center
Tue 04:57:25 AM 29.9333 -83.4319 347° North 419 482 36,000  Level Jacksonville Center
Tue 04:58:25 AM 30.0606 -83.4639 348° North 419 482 36,000  Level Jacksonville Center
Tue 04:59:25 AM 30.1753 -83.4933 347° North 419 482 36,000  Level Jacksonville Center
Tue 05:00:25 AM 30.2964 -83.5253 347° North 425 489 36,000  Level Jacksonville Center
Tue 05:01:25 AM 30.4108 -83.5550 347° North 425 489 36,000  Level Jacksonville Center
Tue 05:02:25 AM 30.5278 -83.5847 348° North 425 489 36,000 -450 Level Jacksonville Center
Tue 05:03:25 AM 30.6403 -83.6144 347° North 425 489 35,100 -1,000 Descending Jacksonville Center
Tue 05:04:25 AM 30.7592 -83.6469 347° North 430 495 34,000 -550 Descending Jacksonville Center
Tue 05:05:25 AM 30.8758 -83.6792 347° North 430 495 34,000  Level Jacksonville Center
Tue 05:06:25 AM 30.9967 -83.7117 347° North 430 495 34,000  Level Jacksonville Center
Tue 05:08:31 AM 31.2350 -83.7767 347° North 434 499 34,000  Level Atlanta Center
Tue 05:09:31 AM 31.3583 -83.8103 347° North 434 499 34,000  Level Atlanta Center
Tue 05:10:31 AM 31.4897 -83.8464 347° North 434 499 34,000 -200 Level Atlanta Center
Tue 05:11:31 AM 31.6108 -83.8828 346° North 434 499 33,600 -1,250 Descending Atlanta Center
Tue 05:12:31 AM 31.7444 -83.9192 347° North 451 519 31,500 -1,700 Descending Atlanta Center
Tue 05:13:31 AM 31.8675 -83.9483 349° North 456 525 30,200 -1,250 Descending Atlanta Center
Tue 05:14:31 AM 31.9908 -83.9800 348° North 456 525 29,000 -1,200 Descending Atlanta Center
Tue 05:15:31 AM 32.1097 -84.0144 346° North 450 518 27,800 -1,150 Descending Atlanta Center
Tue 05:16:31 AM 32.2289 -84.0461 347° North 440 506 26,700 -1,100 Descending Atlanta Center
Tue 05:17:31 AM 32.3436 -84.0781 347° North 434 499 25,600 -1,050 Descending Atlanta Center
Tue 05:18:31 AM 32.4583 -84.1078 348° North 429 494 24,600 -1,150 Descending Atlanta Center
Tue 05:19:31 AM 32.5731 -84.1422 346° North 424 488 23,300 -1,800 Descending Atlanta Center
Tue 05:20:31 AM 32.6836 -84.1722 347° North 412 474 21,000 -2,050 Descending Atlanta Center
Tue 05:21:31 AM 32.7692 -84.1944 348° North 407 468 19,200 -1,950 Descending Atlanta Center
Tue 05:22:31 AM 32.8986 -84.2319 346° North 401 461 17,100 -2,050 Descending Atlanta Center
Tue 05:23:31 AM 33.0031 -84.2617 347° North 391 450 15,100 -1,100 Descending Atlanta Center
Tue 05:24:31 AM 33.0989 -84.2867 348° North 374 430 14,900 -450 Descending Atlanta Center
Tue 05:25:31 AM 33.1886 -84.3119 347° North 341 392 14,200 -1,100 Descending Atlanta Center
Tue 05:26:31 AM 33.2719 -84.3344 347° North 317 365 12,700 -1,100 Descending Atlanta Center
Tue 05:27:31 AM 33.3556 -84.3597 346° North 312 359 12,000 -400 Descending Atlanta Center
Tue 05:28:31 AM 33.4411 -84.3847 346° North 312 359 11,900 -600 Descending Atlanta Center
Tue 05:29:31 AM 33.4847 -84.4572 306° West 296 341 10,800 -1,250 Descending Atlanta Center
Tue 05:30:31 AM 33.5072 -84.5569 285° West 311 358 9,400 -1,750 Descending Atlanta Center
Tue 05:31:31 AM 33.5339 -84.6519 289° West 302 348 7,300 -1,881 Descending Atlanta Center
Tue 05:33:52 AM 33.6333 -84.7000 338° Northwest 212 244 3,100 -1,787 Descending Atlanta TRACON

Login

Don't have an account? Register now (free) for customized features, flight alerts, and more!